EZY95FW EGCC-EHAM
Flight info
| Callsign | EZY95FW |
|---|---|
| Flight time | N/A |
| Altitude | 33000 |
| Route | DESIG L603 LAMSO |
| Aircraft | A320/M-SDE3FGHIRWY/LB1 |
Departure
| Time | N/A |
|---|---|
| Airport | Manchester Airport (EGCC) |
Arrival
| Time | 2026-05-05 19:31 |
|---|---|
| Airport | Amsterdam Airport Schiphol (EHAM) |
| Time | Latitude | Longitude | Altitude | Speed | Heading |
|---|---|---|---|---|---|
| 2026-05-05 18:58 | 53.14620 | 0.18741 | 32260 ft | 453 kts | 123° |
| 2026-05-05 18:58 | 53.13153 | 0.23393 | 32553 ft | 455 kts | 117° |
| 2026-05-05 18:59 | 53.11956 | 0.28273 | 32842 ft | 456 kts | 113° |
| 2026-05-05 18:59 | 53.10933 | 0.33278 | 32985 ft | 455 kts | 110° |
| 2026-05-05 18:59 | 53.09176 | 0.43249 | 32996 ft | 445 kts | 109° |
| 2026-05-05 19:00 | 53.07706 | 0.51421 | 32993 ft | 443 kts | 110° |
| 2026-05-05 19:00 | 53.05791 | 0.61168 | 32994 ft | 443 kts | 112° |
| 2026-05-05 19:01 | 53.03808 | 0.70847 | 32992 ft | 442 kts | 112° |
| 2026-05-05 19:01 | 53.01836 | 0.80512 | 32987 ft | 442 kts | 112° |
| 2026-05-05 19:02 | 52.99863 | 0.90245 | 32980 ft | 441 kts | 112° |
| 2026-05-05 19:02 | 52.97937 | 0.99902 | 32981 ft | 442 kts | 108° |
| 2026-05-05 19:03 | 52.96732 | 1.09948 | 32979 ft | 444 kts | 104° |
| 2026-05-05 19:03 | 52.95579 | 1.20001 | 32979 ft | 443 kts | 104° |
| 2026-05-05 19:04 | 52.94410 | 1.30029 | 32973 ft | 443 kts | 104° |
| 2026-05-05 19:04 | 52.93233 | 1.40044 | 32976 ft | 442 kts | 104° |
| 2026-05-05 19:05 | 52.92052 | 1.50036 | 32977 ft | 442 kts | 104° |
| 2026-05-05 19:05 | 52.90857 | 1.60009 | 32976 ft | 441 kts | 104° |
| 2026-05-05 19:06 | 52.89660 | 1.69974 | 32969 ft | 441 kts | 104° |
| 2026-05-05 19:06 | 52.88461 | 1.79919 | 32963 ft | 440 kts | 104° |
| 2026-05-05 19:07 | 52.87253 | 1.89850 | 32955 ft | 440 kts | 104° |
| 2026-05-05 19:07 | 52.86645 | 1.94813 | 32758 ft | 440 kts | 104° |
| 2026-05-05 19:07 | 52.86037 | 1.99752 | 32171 ft | 437 kts | 104° |
| 2026-05-05 19:08 | 52.85432 | 2.04661 | 31622 ft | 433 kts | 104° |
| 2026-05-05 19:08 | 52.84835 | 2.09488 | 31076 ft | 430 kts | 105° |
| 2026-05-05 19:08 | 52.84248 | 2.14190 | 30552 ft | 427 kts | 105° |
| 2026-05-05 19:08 | 52.83648 | 2.18981 | 30019 ft | 424 kts | 105° |
| 2026-05-05 19:09 | 52.83051 | 2.23738 | 29439 ft | 420 kts | 105° |
| 2026-05-05 19:09 | 52.82516 | 2.28011 | 28970 ft | 416 kts | 105° |
| 2026-05-05 19:09 | 52.81932 | 2.32661 | 28459 ft | 412 kts | 104° |
| 2026-05-05 19:09 | 52.81353 | 2.37273 | 27956 ft | 408 kts | 104° |
| 2026-05-05 19:10 | 52.80770 | 2.41892 | 27467 ft | 404 kts | 104° |
| 2026-05-05 19:10 | 52.80203 | 2.46353 | 26983 ft | 400 kts | 104° |
| 2026-05-05 19:10 | 52.79623 | 2.50871 | 26500 ft | 397 kts | 104° |
| 2026-05-05 19:10 | 52.79051 | 2.55314 | 26028 ft | 394 kts | 104° |
| 2026-05-05 19:11 | 52.78480 | 2.59730 | 25572 ft | 391 kts | 104° |
| 2026-05-05 19:11 | 52.77913 | 2.64098 | 25111 ft | 389 kts | 104° |
| 2026-05-05 19:11 | 52.77347 | 2.68464 | 24645 ft | 387 kts | 104° |
| 2026-05-05 19:11 | 52.76784 | 2.72789 | 24185 ft | 385 kts | 104° |
| 2026-05-05 19:12 | 52.76222 | 2.77099 | 23717 ft | 384 kts | 104° |
| 2026-05-05 19:12 | 52.75660 | 2.81408 | 23191 ft | 383 kts | 104° |
| 2026-05-05 19:12 | 52.75108 | 2.85625 | 22708 ft | 380 kts | 104° |
| 2026-05-05 19:12 | 52.74549 | 2.89876 | 22229 ft | 377 kts | 104° |
| 2026-05-05 19:13 | 52.73993 | 2.94090 | 21756 ft | 375 kts | 104° |
| 2026-05-05 19:13 | 52.73378 | 2.98254 | 21276 ft | 371 kts | 110° |
| 2026-05-05 19:13 | 52.72353 | 3.02135 | 20804 ft | 367 kts | 121° |
| 2026-05-05 19:13 | 52.71081 | 3.05759 | 20332 ft | 365 kts | 121° |
| 2026-05-05 19:14 | 52.69811 | 3.09375 | 19870 ft | 364 kts | 121° |
| 2026-05-05 19:14 | 52.68548 | 3.12974 | 19390 ft | 362 kts | 121° |
| 2026-05-05 19:14 | 52.67287 | 3.16564 | 18929 ft | 361 kts | 121° |
| 2026-05-05 19:14 | 52.66029 | 3.20136 | 18474 ft | 360 kts | 121° |
| 2026-05-05 19:15 | 52.64772 | 3.23703 | 17982 ft | 360 kts | 121° |
| 2026-05-05 19:15 | 52.63517 | 3.27265 | 17520 ft | 358 kts | 121° |
| 2026-05-05 19:15 | 52.62273 | 3.30792 | 17070 ft | 356 kts | 121° |
| 2026-05-05 19:15 | 52.61032 | 3.34301 | 16630 ft | 354 kts | 121° |
| 2026-05-05 19:16 | 52.59797 | 3.37785 | 16190 ft | 352 kts | 121° |
| 2026-05-05 19:16 | 52.58702 | 3.41381 | 15750 ft | 352 kts | 110° |
| 2026-05-05 19:16 | 52.58099 | 3.45263 | 15319 ft | 351 kts | 99° |
| 2026-05-05 19:16 | 52.57694 | 3.49210 | 14887 ft | 350 kts | 100° |
| 2026-05-05 19:17 | 52.57279 | 3.53148 | 14453 ft | 349 kts | 100° |
| 2026-05-05 19:17 | 52.56859 | 3.57076 | 14015 ft | 348 kts | 100° |
| 2026-05-05 19:17 | 52.56436 | 3.60990 | 13557 ft | 348 kts | 100° |
| 2026-05-05 19:17 | 52.56012 | 3.64896 | 13104 ft | 346 kts | 100° |
| 2026-05-05 19:18 | 52.55587 | 3.68829 | 12652 ft | 344 kts | 100° |
| 2026-05-05 19:18 | 52.55173 | 3.72682 | 12210 ft | 341 kts | 100° |
| 2026-05-05 19:18 | 52.54762 | 3.76506 | 11770 ft | 339 kts | 100° |
| 2026-05-05 19:18 | 52.54353 | 3.80308 | 11330 ft | 337 kts | 100° |
| 2026-05-05 19:19 | 52.53942 | 3.84082 | 10881 ft | 334 kts | 100° |
| 2026-05-05 19:19 | 52.53349 | 3.87748 | 10438 ft | 332 kts | 115° |
| 2026-05-05 19:19 | 52.52047 | 3.90826 | 10165 ft | 324 kts | 131° |
| 2026-05-05 19:19 | 52.50573 | 3.93533 | 10037 ft | 312 kts | 132° |
| 2026-05-05 19:20 | 52.49139 | 3.96122 | 9913 ft | 301 kts | 132° |
| 2026-05-05 19:20 | 52.47749 | 3.98620 | 9691 ft | 294 kts | 132° |
| 2026-05-05 19:20 | 52.46371 | 4.01074 | 9330 ft | 291 kts | 132° |
| 2026-05-05 19:20 | 52.44996 | 4.03496 | 8946 ft | 290 kts | 132° |
| 2026-05-05 19:21 | 52.43617 | 4.05894 | 8558 ft | 288 kts | 132° |
| 2026-05-05 19:21 | 52.42241 | 4.08265 | 8177 ft | 287 kts | 132° |
| 2026-05-05 19:21 | 52.40866 | 4.10617 | 7785 ft | 285 kts | 133° |
| 2026-05-05 19:21 | 52.39490 | 4.12951 | 7394 ft | 284 kts | 132° |
| 2026-05-05 19:22 | 52.38117 | 4.15261 | 7010 ft | 282 kts | 132° |
| 2026-05-05 19:22 | 52.36745 | 4.17553 | 6623 ft | 281 kts | 132° |
| 2026-05-05 19:22 | 52.35376 | 4.19824 | 6233 ft | 280 kts | 133° |
| 2026-05-05 19:22 | 52.34008 | 4.22067 | 5828 ft | 278 kts | 132° |
| 2026-05-05 19:23 | 52.32632 | 4.24274 | 5436 ft | 276 kts | 132° |
| 2026-05-05 19:23 | 52.31327 | 4.26331 | 5084 ft | 273 kts | 133° |
| 2026-05-05 19:23 | 52.30022 | 4.28378 | 4719 ft | 270 kts | 132° |
| 2026-05-05 19:23 | 52.28660 | 4.30492 | 4286 ft | 269 kts | 132° |
| 2026-05-05 19:24 | 52.27289 | 4.32604 | 3846 ft | 267 kts | 132° |
| 2026-05-05 19:24 | 52.25938 | 4.34673 | 3448 ft | 265 kts | 133° |
| 2026-05-05 19:24 | 52.24867 | 4.36306 | 3135 ft | 263 kts | 133° |
| 2026-05-05 19:24 | 52.23632 | 4.38181 | 2842 ft | 257 kts | 133° |
| 2026-05-05 19:25 | 52.22353 | 4.40106 | 2711 ft | 244 kts | 133° |
| 2026-05-05 19:25 | 52.21136 | 4.41927 | 2580 ft | 232 kts | 132° |
| 2026-05-05 19:25 | 52.20199 | 4.43913 | 2426 ft | 212 kts | 104° |
| 2026-05-05 19:25 | 52.20005 | 4.46179 | 2294 ft | 197 kts | 85° |
| 2026-05-05 19:26 | 52.20043 | 4.48363 | 2155 ft | 190 kts | 83° |
| 2026-05-05 19:26 | 52.20134 | 4.50466 | 2063 ft | 181 kts | 73° |
| 2026-05-05 19:26 | 52.20627 | 4.52294 | 2006 ft | 175 kts | 54° |
| 2026-05-05 19:26 | 52.21283 | 4.53978 | 2003 ft | 177 kts | 55° |
| 2026-05-05 19:27 | 52.21941 | 4.55673 | 2008 ft | 177 kts | 55° |
| 2026-05-05 19:27 | 52.22596 | 4.57366 | 2006 ft | 177 kts | 55° |
| 2026-05-05 19:27 | 52.23242 | 4.59033 | 2028 ft | 168 kts | 56° |
| 2026-05-05 19:27 | 52.23863 | 4.60641 | 1877 ft | 166 kts | 55° |
| 2026-05-05 19:28 | 52.24468 | 4.62206 | 1677 ft | 155 kts | 55° |
| 2026-05-05 19:28 | 52.25007 | 4.63602 | 1496 ft | 139 kts | 54° |
| 2026-05-05 19:28 | 52.25510 | 4.64905 | 1311 ft | 133 kts | 54° |
| 2026-05-05 19:28 | 52.26002 | 4.66178 | 1132 ft | 132 kts | 54° |
| 2026-05-05 19:29 | 52.26489 | 4.67438 | 948 ft | 133 kts | 54° |
| 2026-05-05 19:29 | 52.26986 | 4.68728 | 754 ft | 132 kts | 54° |
| 2026-05-05 19:29 | 52.27476 | 4.69998 | 577 ft | 133 kts | 54° |
| 2026-05-05 19:29 | 52.27967 | 4.71273 | 389 ft | 133 kts | 51° |
| 2026-05-05 19:30 | 52.28456 | 4.72541 | 217 ft | 133 kts | 53° |
| 2026-05-05 19:30 | 52.28944 | 4.73816 | 46 ft | 132 kts | 52° |
| 2026-05-05 19:30 | 52.29402 | 4.74989 | -1 ft | 110 kts | 57° |
| 2026-05-05 19:30 | 52.29713 | 4.75797 | -2 ft | 56 kts | 57° |
| 2026-05-05 19:31 | 52.29905 | 4.76303 | -4 ft | 45 kts | 57° |
| 2026-05-05 19:31 | 52.30100 | 4.76605 | -1 ft | 33 kts | 28° |
| 2026-05-05 19:31 | 52.30253 | 4.76733 | -1 ft | 16 kts | 26° |
| 2026-05-05 19:31 | 52.30267 | 4.76745 | -1 ft | 2 kts | 26° |
| 2026-05-05 19:32 | 52.30292 | 4.76771 | -1 ft | 10 kts | 42° |
| 2026-05-05 19:32 | 52.30343 | 4.76898 | -1 ft | 15 kts | 57° |
| 2026-05-05 19:32 | 52.30402 | 4.77049 | -1 ft | 17 kts | 57° |
| 2026-05-05 19:32 | 52.30468 | 4.77216 | -1 ft | 18 kts | 59° |